createdAt,value
2023-05-12T00:00:19.244Z,27.31
2023-05-12T00:02:46.841Z,27.45
2023-05-12T00:05:13.981Z,27.32
2023-05-12T00:07:40.946Z,27.14
2023-05-12T00:10:08.237Z,27.24
2023-05-12T00:12:35.420Z,27.39
2023-05-12T00:15:03.150Z,27.63
2023-05-12T00:17:30.541Z,27.54
2023-05-12T00:19:57.550Z,27.82
2023-05-12T00:22:24.576Z,27.91
2023-05-12T00:24:51.828Z,27.59
2023-05-12T00:27:18.801Z,27.75
2023-05-12T00:29:46.035Z,27.76
2023-05-12T00:32:13.132Z,28.19
2023-05-12T00:34:40.130Z,28.46
2023-05-12T00:37:07.454Z,28.37
2023-05-12T00:39:34.511Z,28.35
2023-05-12T00:42:02.027Z,28.41
2023-05-12T00:44:29.055Z,28.20
2023-05-12T00:46:56.341Z,28.48
2023-05-12T00:49:25.862Z,28.52
2023-05-12T00:51:55.093Z,28.62
2023-05-12T00:54:23.110Z,28.78
2023-05-12T00:56:50.316Z,29.06
2023-05-12T00:59:17.767Z,29.15
2023-05-12T01:01:46.742Z,29.08
2023-05-12T01:04:13.943Z,28.74
2023-05-12T01:06:49.822Z,28.82
2023-05-12T01:09:17.576Z,28.72
2023-05-12T01:11:45.002Z,29.13
2023-05-12T01:14:12.282Z,29.06
2023-05-12T01:16:52.304Z,29.22
2023-05-12T01:19:34.008Z,29.27
2023-05-12T01:22:01.082Z,29.71
2023-05-12T01:24:29.575Z,29.55
2023-05-12T01:26:56.949Z,29.53
2023-05-12T01:29:24.005Z,29.82
2023-05-12T01:31:51.072Z,30.08
2023-05-12T01:34:21.398Z,30.68
2023-05-12T01:36:51.300Z,30.40
2023-05-12T01:39:18.674Z,30.46
2023-05-12T01:41:45.879Z,30.27
2023-05-12T01:44:12.923Z,30.26
2023-05-12T01:46:40.072Z,30.52
2023-05-12T01:49:10.097Z,30.52
2023-05-12T01:51:37.296Z,30.54
2023-05-12T01:54:04.680Z,30.52
2023-05-12T01:56:33.697Z,30.80
2023-05-12T01:59:01.203Z,30.91
2023-05-12T02:01:29.095Z,31.03
2023-05-12T02:03:56.755Z,31.74
2023-05-12T02:06:24.202Z,31.86
2023-05-12T02:08:51.308Z,31.88
2023-05-12T02:11:18.333Z,32.25
2023-05-12T02:13:45.455Z,32.63
2023-05-12T02:16:12.797Z,32.61
2023-05-12T02:18:40.723Z,32.75
2023-05-12T02:21:07.967Z,32.13
2023-05-12T02:23:35.018Z,32.27
2023-05-12T02:26:02.239Z,32.59
2023-05-12T02:28:29.297Z,32.79
2023-05-12T02:30:57.132Z,32.98
2023-05-12T02:33:25.052Z,33.07
2023-05-12T02:35:52.077Z,33.33
2023-05-12T02:38:19.345Z,33.44
2023-05-12T02:40:46.677Z,33.52
2023-05-12T02:43:14.095Z,33.71
2023-05-12T02:45:41.655Z,33.85
2023-05-12T02:48:09.085Z,33.29
2023-05-12T02:50:36.347Z,33.96
2023-05-12T02:53:03.559Z,34.28
2023-05-12T02:55:30.603Z,34.26
2023-05-12T02:57:57.623Z,34.29
2023-05-12T03:00:24.858Z,34.34
2023-05-12T03:02:52.592Z,34.25
2023-05-12T03:05:19.956Z,34.19
2023-05-12T03:07:49.468Z,34.49
2023-05-12T03:10:19.815Z,34.32
2023-05-12T03:12:47.099Z,34.19
2023-05-12T03:15:14.333Z,34.27
2023-05-12T03:17:41.711Z,34.33
2023-05-12T03:20:09.131Z,33.98
2023-05-12T03:22:36.675Z,34.11
2023-05-12T03:25:05.161Z,33.93
2023-05-12T03:27:36.720Z,33.94
2023-05-12T03:30:05.866Z,34.02
2023-05-12T03:32:35.586Z,34.03
2023-05-12T03:35:02.889Z,33.97
2023-05-12T03:37:30.287Z,33.95
2023-05-12T03:39:58.312Z,33.77
2023-05-12T03:42:25.288Z,33.65
2023-05-12T03:44:52.632Z,33.42
2023-05-12T03:47:19.932Z,33.14
2023-05-12T03:49:47.070Z,33.08
2023-05-12T03:52:14.738Z,32.94
2023-05-12T03:54:41.841Z,33.08
2023-05-12T03:57:08.837Z,32.90
2023-05-12T03:59:35.865Z,32.90
2023-05-12T04:02:03.073Z,32.92
2023-05-12T04:04:30.235Z,33.07
2023-05-12T04:06:59.927Z,33.05
2023-05-12T04:09:26.907Z,33.10
2023-05-12T04:11:53.926Z,33.18
2023-05-12T04:14:29.033Z,33.30
2023-05-12T04:17:03.013Z,33.13
2023-05-12T04:19:29.926Z,33.11
2023-05-12T04:21:56.983Z,32.95
2023-05-12T04:24:25.691Z,33.11
2023-05-12T04:26:52.899Z,32.93
2023-05-12T04:29:20.641Z,33.20
2023-05-12T04:31:47.676Z,32.96
2023-05-12T04:34:14.918Z,33.37
2023-05-12T04:36:41.956Z,33.39
2023-05-12T04:39:09.682Z,33.09
2023-05-12T04:41:37.257Z,33.10
2023-05-12T04:44:05.354Z,33.29
2023-05-12T04:46:33.267Z,32.95
2023-05-12T04:49:00.877Z,33.11
2023-05-12T04:51:27.898Z,33.06
2023-05-12T04:53:55.290Z,33.11
2023-05-12T04:56:22.691Z,32.85
2023-05-12T04:58:50.032Z,32.89
2023-05-12T05:01:17.150Z,32.89
2023-05-12T05:03:44.487Z,32.83
2023-05-12T05:06:12.073Z,33.00
2023-05-12T05:08:39.307Z,33.23
2023-05-12T05:11:06.451Z,33.04
2023-05-12T05:13:33.473Z,33.06
2023-05-12T05:16:00.497Z,33.33
2023-05-12T05:18:29.359Z,33.22
2023-05-12T05:20:58.771Z,33.49
2023-05-12T05:23:26.927Z,33.76
2023-05-12T05:25:54.356Z,33.77
2023-05-12T05:28:21.512Z,33.58
2023-05-12T05:30:48.819Z,33.77
2023-05-12T05:33:15.967Z,33.74
2023-05-12T05:35:43.222Z,33.49
2023-05-12T05:38:11.266Z,35.09
2023-05-12T05:40:51.542Z,34.19
2023-05-12T05:43:21.021Z,33.97
2023-05-12T05:45:50.320Z,33.87
2023-05-12T05:48:18.322Z,33.79
2023-05-12T05:50:46.800Z,33.77
2023-05-12T05:53:13.896Z,33.80
2023-05-12T05:55:41.351Z,33.77
2023-05-12T05:58:08.837Z,33.57
2023-05-12T06:00:36.009Z,33.65
2023-05-12T06:03:03.246Z,33.42
2023-05-12T06:05:30.981Z,33.57
2023-05-12T06:07:58.285Z,33.67
2023-05-12T06:10:25.927Z,33.49
2023-05-12T06:12:52.967Z,33.57
2023-05-12T06:15:21.684Z,33.56
2023-05-12T06:17:50.016Z,33.35
2023-05-12T06:20:17.593Z,33.22
2023-05-12T06:22:45.499Z,33.15
2023-05-12T06:25:16.616Z,33.26
2023-05-12T06:27:43.632Z,32.82
2023-05-12T06:30:15.644Z,33.16
2023-05-12T06:32:43.407Z,32.94
2023-05-12T06:35:10.835Z,32.77
2023-05-12T06:37:38.640Z,32.88
2023-05-12T06:40:06.449Z,32.83
2023-05-12T06:42:33.475Z,32.67
2023-05-12T06:45:03.877Z,32.82
2023-05-12T06:47:32.205Z,32.47
2023-05-12T06:49:59.256Z,32.48
2023-05-12T06:52:26.362Z,32.30
2023-05-12T06:54:53.469Z,31.85
2023-05-12T06:57:20.663Z,31.92
2023-05-12T06:59:47.892Z,31.80
2023-05-12T07:02:14.896Z,31.75
2023-05-12T07:04:42.070Z,31.85
2023-05-12T07:07:09.054Z,31.63
2023-05-12T07:09:36.318Z,31.69
2023-05-12T07:12:04.228Z,31.24
2023-05-12T07:14:31.181Z,31.05
2023-05-12T07:16:58.186Z,30.82
2023-05-12T07:19:25.283Z,30.79
2023-05-12T07:21:53.408Z,30.87
2023-05-12T07:24:20.765Z,30.81
2023-05-12T07:26:47.815Z,30.42
2023-05-12T07:29:14.865Z,30.29
2023-05-12T07:31:42.182Z,29.26
2023-05-12T07:34:09.475Z,29.61
2023-05-12T07:37:49.374Z,31.10
2023-05-12T07:40:16.358Z,29.18
2023-05-12T07:42:43.340Z,29.11
2023-05-12T07:45:10.950Z,29.25
2023-05-12T07:47:37.918Z,28.37
2023-05-12T07:50:05.588Z,28.90
2023-05-12T07:52:33.048Z,29.00
2023-05-12T07:55:00.023Z,28.98
2023-05-12T07:57:27.168Z,28.82
2023-05-12T07:59:59.591Z,28.64
2023-05-12T08:02:26.860Z,28.17
2023-05-12T08:04:53.960Z,28.30
2023-05-12T08:07:53.957Z,28.29
2023-05-12T08:10:21.059Z,28.34
2023-05-12T08:12:48.092Z,27.89
2023-05-12T08:15:15.226Z,28.28
2023-05-12T08:17:42.435Z,27.94
2023-05-12T08:20:10.904Z,27.84
2023-05-12T08:22:38.144Z,27.98
2023-05-12T08:25:06.132Z,27.36
2023-05-12T08:27:33.136Z,27.49
2023-05-12T08:30:11.854Z,27.67
2023-05-12T08:32:39.209Z,27.14
2023-05-12T08:35:06.675Z,27.28
2023-05-12T08:37:44.706Z,27.33
2023-05-12T08:40:18.216Z,27.02
2023-05-12T08:43:21.510Z,26.84
2023-05-12T08:45:48.737Z,26.71
2023-05-12T08:48:15.923Z,26.66
2023-05-12T08:50:43.531Z,26.61
2023-05-12T08:53:12.037Z,25.99
2023-05-12T08:55:50.168Z,25.34
2023-05-12T08:58:39.996Z,25.53
2023-05-12T09:01:07.997Z,25.83
2023-05-12T09:03:35.506Z,25.31
2023-05-12T09:06:03.763Z,23.46
2023-05-12T09:08:36.103Z,24.47
2023-05-12T09:11:03.394Z,24.41
2023-05-12T09:13:46.352Z,24.76
2023-05-12T09:16:13.844Z,24.47
2023-05-12T09:18:57.863Z,24.22
2023-05-12T09:21:25.443Z,24.63
2023-05-12T09:24:11.876Z,24.42
2023-05-12T09:26:49.746Z,24.15
2023-05-12T09:29:27.818Z,24.61
2023-05-12T09:31:58.791Z,24.35
2023-05-12T09:34:30.745Z,24.28
2023-05-12T09:36:59.245Z,24.10
2023-05-12T09:39:26.366Z,24.17
2023-05-12T09:41:54.079Z,23.95
2023-05-12T09:44:21.667Z,24.22
2023-05-12T09:46:49.250Z,24.25
2023-05-12T09:49:26.098Z,24.08
2023-05-12T09:51:54.333Z,23.41
2023-05-12T09:54:28.554Z,23.94
2023-05-12T09:57:02.740Z,22.98
2023-05-12T09:59:32.846Z,23.06
2023-05-12T10:02:01.255Z,23.52
2023-05-12T10:04:29.514Z,23.48
2023-05-12T10:06:56.547Z,23.22
2023-05-12T10:09:28.784Z,22.80
2023-05-12T10:11:56.723Z,22.88
2023-05-12T10:14:24.132Z,22.81
2023-05-12T10:16:51.631Z,23.07
2023-05-12T10:19:19.298Z,22.89
2023-05-12T10:21:46.440Z,22.83
2023-05-12T10:24:17.158Z,22.58
2023-05-12T10:26:44.973Z,22.48
2023-05-12T10:29:12.639Z,22.46
2023-05-12T10:31:39.785Z,22.63
2023-05-12T10:34:07.240Z,22.67
2023-05-12T10:36:47.608Z,22.62
2023-05-12T10:39:17.985Z,22.43
2023-05-12T10:41:44.987Z,21.99
2023-05-12T10:44:12.359Z,22.28
2023-05-12T10:46:39.666Z,22.31
2023-05-12T10:49:06.689Z,22.53
2023-05-12T10:51:35.069Z,22.35
2023-05-12T10:54:07.946Z,22.12
2023-05-12T10:56:39.944Z,22.03
2023-05-12T10:59:14.895Z,21.79
2023-05-12T11:01:43.204Z,21.73
2023-05-12T11:04:15.711Z,21.96
2023-05-12T11:06:44.995Z,22.03
2023-05-12T11:09:13.353Z,22.25
2023-05-12T11:11:41.023Z,22.05
2023-05-12T11:14:08.601Z,21.78
2023-05-12T11:16:42.432Z,21.62
2023-05-12T11:19:09.568Z,21.37
2023-05-12T11:21:37.327Z,21.83
2023-05-12T11:24:04.658Z,21.47
2023-05-12T11:26:31.940Z,21.50
2023-05-12T11:28:59.226Z,21.62
2023-05-12T11:31:26.421Z,21.68
2023-05-12T11:34:12.680Z,21.98
2023-05-12T11:36:42.585Z,21.12
2023-05-12T11:39:17.053Z,21.55
2023-05-12T11:41:45.192Z,21.88
2023-05-12T11:44:16.148Z,21.68
2023-05-12T11:47:02.947Z,20.87
2023-05-12T11:49:30.968Z,21.17
2023-05-12T11:51:59.065Z,21.15
2023-05-12T11:54:28.840Z,21.49
2023-05-12T11:56:56.446Z,21.35
2023-05-12T11:59:28.291Z,21.19
2023-05-12T12:01:55.566Z,20.93
2023-05-12T12:04:40.917Z,20.88
2023-05-12T12:07:08.642Z,20.31
2023-05-12T12:09:37.377Z,20.52
2023-05-12T12:12:05.415Z,20.27
2023-05-12T12:14:33.112Z,20.79
2023-05-12T12:17:00.511Z,20.29
2023-05-12T12:19:28.571Z,19.98
2023-05-12T12:21:56.235Z,20.44
2023-05-12T12:24:23.976Z,20.32
2023-05-12T12:26:51.052Z,20.50
2023-05-12T12:29:18.463Z,20.45
2023-05-12T12:31:46.066Z,20.34
2023-05-12T12:34:13.161Z,19.83
2023-05-12T12:36:40.402Z,20.32
2023-05-12T12:39:07.992Z,20.04
2023-05-12T12:41:35.064Z,20.20
2023-05-12T12:44:02.714Z,20.11
2023-05-12T12:46:29.757Z,20.43
2023-05-12T12:48:58.284Z,20.59
2023-05-12T12:51:38.545Z,20.63
2023-05-12T12:54:12.439Z,20.93
2023-05-12T12:56:39.514Z,20.25
2023-05-12T12:59:06.582Z,20.15
2023-05-12T13:01:34.118Z,20.49
2023-05-12T13:04:01.348Z,20.42
2023-05-12T13:06:29.428Z,20.79
2023-05-12T13:08:56.726Z,20.55
2023-05-12T13:11:23.832Z,20.43
2023-05-12T13:13:50.810Z,20.54
2023-05-12T13:16:18.597Z,20.90
2023-05-12T13:18:46.161Z,21.31
2023-05-12T13:21:13.050Z,20.97
2023-05-12T13:23:40.061Z,20.81
2023-05-12T13:26:07.053Z,20.54
2023-05-12T13:28:34.070Z,20.82
2023-05-12T13:31:01.379Z,20.95
2023-05-12T13:33:28.968Z,21.00
2023-05-12T13:35:55.938Z,21.11
2023-05-12T13:38:23.145Z,21.35
2023-05-12T13:40:50.495Z,21.51
2023-05-12T13:43:18.533Z,21.65
2023-05-12T13:45:45.953Z,21.72
2023-05-12T13:48:13.268Z,21.67
2023-05-12T13:50:40.358Z,21.62
2023-05-12T13:53:07.460Z,21.28
2023-05-12T13:55:40.645Z,21.46
2023-05-12T13:58:08.049Z,21.63
2023-05-12T14:00:35.109Z,21.61
2023-05-12T14:03:02.252Z,20.85
2023-05-12T14:05:29.613Z,21.01
2023-05-12T14:07:57.421Z,19.95
2023-05-12T14:10:24.546Z,20.41
2023-05-12T14:12:51.642Z,20.05
2023-05-12T14:17:48.625Z,19.99
2023-05-12T14:20:16.171Z,19.96
2023-05-12T14:22:43.244Z,20.01
2023-05-12T14:25:10.552Z,20.10
2023-05-12T14:27:37.825Z,20.36
2023-05-12T14:30:07.546Z,20.42
2023-05-12T14:32:34.738Z,20.22
2023-05-12T14:35:01.926Z,20.55
2023-05-12T14:37:28.980Z,20.64
2023-05-12T14:39:57.126Z,20.40
2023-05-12T14:42:24.964Z,20.13
2023-05-12T14:44:52.024Z,20.44
2023-05-12T14:47:19.020Z,20.55
2023-05-12T14:49:46.353Z,20.83
2023-05-12T14:52:13.406Z,20.91
2023-05-12T14:54:40.655Z,21.40
2023-05-12T14:57:08.239Z,21.37
2023-05-12T14:59:35.881Z,21.05
2023-05-12T15:02:02.974Z,21.11
2023-05-12T15:04:30.653Z,21.51
2023-05-12T15:06:57.705Z,21.32
2023-05-12T15:09:25.077Z,21.58
2023-05-12T15:11:52.730Z,21.51
2023-05-12T15:14:19.729Z,21.85
2023-05-12T15:16:47.289Z,21.99
2023-05-12T15:19:15.508Z,21.64
2023-05-12T15:21:42.920Z,21.96
2023-05-12T15:24:09.921Z,21.90
2023-05-12T15:26:39.498Z,21.69
2023-05-12T15:29:07.453Z,21.80
2023-05-12T15:31:35.456Z,22.15
2023-05-12T15:34:03.289Z,22.14
2023-05-12T15:36:31.147Z,22.03
2023-05-12T15:38:58.251Z,21.51
2023-05-12T15:41:25.332Z,21.89
2023-05-12T15:43:52.442Z,22.06
2023-05-12T15:46:19.593Z,21.90
2023-05-12T15:48:48.768Z,22.41
2023-05-12T15:51:15.781Z,22.15
2023-05-12T15:53:42.957Z,22.55
2023-05-12T15:56:09.923Z,22.16
2023-05-12T15:58:37.338Z,21.98
2023-05-12T16:01:04.606Z,21.62
2023-05-12T16:03:32.016Z,21.48
2023-05-12T16:05:59.132Z,21.75
2023-05-12T16:08:27.046Z,21.85
2023-05-12T16:10:54.487Z,22.30
2023-05-12T16:13:21.541Z,21.84
2023-05-12T16:15:52.141Z,22.26
2023-05-12T16:18:19.284Z,22.57
2023-05-12T16:20:47.597Z,23.26
2023-05-12T16:23:14.834Z,23.22
2023-05-12T16:25:42.530Z,23.56
2023-05-12T16:28:09.528Z,24.38
2023-05-12T16:30:37.278Z,24.23
2023-05-12T16:33:04.640Z,23.88
2023-05-12T16:35:32.071Z,24.04
2023-05-12T16:37:59.122Z,25.11
2023-05-12T16:40:26.096Z,24.87
2023-05-12T16:42:54.933Z,25.17
2023-05-12T16:45:25.751Z,25.42
2023-05-12T16:47:53.375Z,25.89
2023-05-12T16:50:20.543Z,25.66
2023-05-12T16:52:47.631Z,25.67
2023-05-12T16:55:14.641Z,25.89
2023-05-12T16:57:43.376Z,26.18
2023-05-12T17:00:11.640Z,26.42
2023-05-12T17:02:39.188Z,26.38
2023-05-12T17:05:06.960Z,26.73
2023-05-12T17:07:35.451Z,26.90
2023-05-12T17:10:02.950Z,26.94
2023-05-12T17:12:30.109Z,27.60
2023-05-12T17:15:06.885Z,27.86
2023-05-12T17:17:35.285Z,27.98
2023-05-12T17:20:02.770Z,27.70
2023-05-12T17:22:31.148Z,27.27
2023-05-12T17:24:58.364Z,27.36
2023-05-12T17:27:26.004Z,27.63
2023-05-12T17:29:53.009Z,27.91
2023-05-12T17:32:19.978Z,28.00
2023-05-12T17:34:50.378Z,28.10
2023-05-12T17:37:18.342Z,28.35
2023-05-12T17:39:46.396Z,28.33
2023-05-12T17:42:13.441Z,28.48
2023-05-12T17:44:40.476Z,29.13
2023-05-12T17:47:07.780Z,28.89
2023-05-12T17:49:35.316Z,28.97
2023-05-12T17:52:02.409Z,29.76
2023-05-12T17:54:29.618Z,29.17
2023-05-12T17:56:56.642Z,29.44
2023-05-12T17:59:23.718Z,29.74
2023-05-12T18:01:51.940Z,29.96
2023-05-12T18:04:19.563Z,29.99
2023-05-12T18:06:50.374Z,29.93
2023-05-12T18:09:18.038Z,30.63
2023-05-12T18:11:45.109Z,31.14
2023-05-12T18:14:12.253Z,31.03
2023-05-12T18:16:39.588Z,30.96
2023-05-12T18:19:06.771Z,30.97
2023-05-12T18:21:33.850Z,31.69
2023-05-12T18:24:01.692Z,31.93
2023-05-12T18:26:29.806Z,31.64
2023-05-12T18:28:56.841Z,31.65
2023-05-12T18:31:23.989Z,31.71
2023-05-12T18:33:51.290Z,31.51
2023-05-12T18:36:18.520Z,31.66
2023-05-12T18:38:46.247Z,31.84
2023-05-12T18:41:13.351Z,31.89
2023-05-12T18:43:40.443Z,32.04
2023-05-12T18:46:07.682Z,31.61
2023-05-12T18:48:34.984Z,31.61
2023-05-12T18:51:02.313Z,31.57
2023-05-12T18:53:29.406Z,31.64
2023-05-12T18:55:56.854Z,31.71
2023-05-12T18:58:23.891Z,32.00
2023-05-12T19:00:50.974Z,30.60
2023-05-12T19:03:18.556Z,30.57
2023-05-12T19:05:46.583Z,31.70
2023-05-12T19:08:13.841Z,31.19
2023-05-12T19:10:41.371Z,31.20
2023-05-12T19:13:08.573Z,31.80
2023-05-12T19:15:36.264Z,32.31
2023-05-12T19:18:03.534Z,33.15
2023-05-12T19:20:31.180Z,32.73
2023-05-12T19:22:59.879Z,33.34
2023-05-12T19:25:27.280Z,32.96
2023-05-12T19:27:54.764Z,32.62
2023-05-12T19:30:21.831Z,32.74
2023-05-12T19:32:50.308Z,33.02
2023-05-12T19:35:17.451Z,33.20
2023-05-12T19:37:44.552Z,33.37
2023-05-12T19:40:12.549Z,33.97
2023-05-12T19:42:39.548Z,34.34
2023-05-12T19:45:07.190Z,34.54
2023-05-12T19:47:34.502Z,34.82
2023-05-12T19:50:01.543Z,34.22
2023-05-12T19:54:13.557Z,36.37
2023-05-12T19:56:40.580Z,35.31
2023-05-12T19:59:08.165Z,35.41
2023-05-12T20:01:35.464Z,36.14
2023-05-12T20:04:02.957Z,35.99
2023-05-12T20:06:31.032Z,35.55
2023-05-12T20:08:57.952Z,35.22
2023-05-12T20:11:25.225Z,36.20
2023-05-12T20:13:52.152Z,35.10
2023-05-12T20:16:19.161Z,33.86
2023-05-12T20:18:46.929Z,34.24
2023-05-12T20:21:13.980Z,34.06
2023-05-12T20:23:41.043Z,34.51
2023-05-12T20:26:08.579Z,34.06
2023-05-12T20:28:36.219Z,34.25
2023-05-12T20:31:03.726Z,34.33
2023-05-12T20:33:30.802Z,34.61
2023-05-12T20:35:57.804Z,34.83
2023-05-12T20:38:25.027Z,34.48
2023-05-12T20:40:52.314Z,35.86
2023-05-12T20:43:19.568Z,36.02
2023-05-12T20:45:46.622Z,36.53
2023-05-12T20:48:13.879Z,36.24
2023-05-12T20:50:41.023Z,35.57
2023-05-12T20:53:08.075Z,36.52
2023-05-12T20:55:35.581Z,37.03
2023-05-12T20:58:02.760Z,36.28
2023-05-12T21:00:29.808Z,36.67
2023-05-12T21:02:58.226Z,36.42
2023-05-12T21:05:25.318Z,36.58
2023-05-12T21:07:52.857Z,35.90
2023-05-12T21:10:20.422Z,36.07
2023-05-12T21:12:47.821Z,35.48
2023-05-12T21:15:14.887Z,36.27
2023-05-12T21:17:42.207Z,36.78
2023-05-12T21:20:12.214Z,36.83
2023-05-12T21:22:40.945Z,37.31
2023-05-12T21:25:08.481Z,37.91
2023-05-12T21:27:40.487Z,37.87
2023-05-12T21:30:08.862Z,37.38
2023-05-12T21:32:36.345Z,37.12
2023-05-12T21:35:03.836Z,37.45
2023-05-12T21:37:30.967Z,37.60
2023-05-12T21:39:58.018Z,37.27
2023-05-12T21:42:25.020Z,35.96
2023-05-12T21:44:52.437Z,36.44
2023-05-12T21:47:19.421Z,37.02
2023-05-12T21:49:46.414Z,36.60
2023-05-12T21:52:13.411Z,37.03
2023-05-12T21:54:40.416Z,37.20
2023-05-12T21:57:07.573Z,36.99
2023-05-12T21:59:34.599Z,36.95
2023-05-12T22:02:01.562Z,37.24
2023-05-12T22:04:28.677Z,37.31
2023-05-12T22:06:56.053Z,37.35
2023-05-12T22:09:23.336Z,37.30
2023-05-12T22:11:50.264Z,37.20
2023-05-12T22:14:17.589Z,37.32
2023-05-12T22:16:45.135Z,37.49
2023-05-12T22:19:12.818Z,37.50
2023-05-12T22:21:40.172Z,37.23
2023-05-12T22:24:07.584Z,37.04
2023-05-12T22:26:34.631Z,37.48
2023-05-12T22:29:01.969Z,37.88
2023-05-12T22:31:29.070Z,37.95
2023-05-12T22:33:56.266Z,38.29
2023-05-12T22:36:23.245Z,38.62
2023-05-12T22:38:50.459Z,38.33
2023-05-12T22:41:17.469Z,38.10
2023-05-12T22:43:44.465Z,38.00
2023-05-12T22:46:11.618Z,38.20
2023-05-12T22:48:39.441Z,38.48
2023-05-12T22:51:07.025Z,38.26
2023-05-12T22:53:36.274Z,38.34
2023-05-12T22:56:03.717Z,38.89
2023-05-12T22:58:31.174Z,39.18
2023-05-12T23:00:58.538Z,39.22
2023-05-12T23:03:25.670Z,39.01
2023-05-12T23:05:53.087Z,38.46
2023-05-12T23:08:20.110Z,37.87
2023-05-12T23:10:47.513Z,37.76
2023-05-12T23:13:14.565Z,37.68
2023-05-12T23:15:41.850Z,37.38
2023-05-12T23:18:08.847Z,37.68
2023-05-12T23:20:35.902Z,37.88
2023-05-12T23:23:03.320Z,38.51
2023-05-12T23:25:30.428Z,38.54
2023-05-12T23:27:57.459Z,39.16
2023-05-12T23:30:24.651Z,38.59
2023-05-12T23:32:52.171Z,38.34
2023-05-12T23:35:20.061Z,38.39
2023-05-12T23:37:47.034Z,38.83
2023-05-12T23:40:14.009Z,38.91
2023-05-12T23:42:41.303Z,38.92
2023-05-12T23:45:08.913Z,38.85
2023-05-12T23:47:36.397Z,38.51
2023-05-12T23:50:03.844Z,39.04
2023-05-12T23:52:31.052Z,38.61
2023-05-12T23:54:58.027Z,39.40
2023-05-12T23:57:25.379Z,39.64
2023-05-12T23:59:52.616Z,39.80
